createdAt,value
2018-12-17T00:01:54.414Z,2.70
2018-12-17T00:04:22.014Z,2.80
2018-12-17T00:06:49.532Z,2.70
2018-12-17T00:09:17.100Z,2.80
2018-12-17T00:11:44.661Z,2.90
2018-12-17T00:14:12.302Z,2.80
2018-12-17T00:16:39.875Z,2.80
2018-12-17T00:19:07.423Z,2.90
2018-12-17T00:21:34.945Z,2.80
2018-12-17T00:24:02.473Z,2.80
2018-12-17T00:26:30.053Z,2.70
2018-12-17T00:28:57.609Z,2.70
2018-12-17T00:31:25.233Z,2.80
2018-12-17T00:33:53.185Z,2.70
2018-12-17T00:36:20.721Z,2.80
2018-12-17T00:38:48.407Z,2.90
2018-12-17T00:41:15.959Z,2.80
2018-12-17T00:43:45.324Z,2.70
2018-12-17T00:46:13.075Z,2.80
2018-12-17T00:48:40.637Z,2.70
2018-12-17T00:51:08.174Z,2.60
2018-12-17T00:53:35.877Z,2.60
2018-12-17T00:56:03.543Z,2.70
2018-12-17T00:58:31.062Z,2.70
2018-12-17T01:00:58.566Z,2.70
2018-12-17T01:03:26.164Z,2.70
2018-12-17T01:05:54.610Z,2.70
2018-12-17T01:08:22.105Z,2.70
2018-12-17T01:10:49.766Z,2.60
2018-12-17T01:13:17.358Z,2.70
2018-12-17T01:15:44.955Z,2.70
2018-12-17T01:18:12.498Z,2.80
2018-12-17T01:20:40.067Z,2.80
2018-12-17T01:23:07.585Z,2.60
2018-12-17T01:25:35.119Z,2.50
2018-12-17T01:28:02.696Z,2.50
2018-12-17T01:30:30.231Z,2.50
2018-12-17T01:32:57.835Z,2.60
2018-12-17T01:35:26.113Z,2.60
2018-12-17T01:37:53.614Z,2.70
2018-12-17T01:40:21.245Z,2.70
2018-12-17T01:42:48.771Z,2.80
2018-12-17T01:45:16.289Z,2.80
2018-12-17T01:47:43.803Z,2.70
2018-12-17T01:50:11.324Z,2.70
2018-12-17T01:52:38.853Z,2.70
2018-12-17T01:55:06.473Z,2.70
2018-12-17T01:57:34.029Z,2.50
2018-12-17T02:00:01.602Z,2.60
2018-12-17T02:02:29.149Z,2.60
2018-12-17T02:04:57.134Z,2.60
2018-12-17T02:07:25.123Z,2.70
2018-12-17T02:09:52.617Z,2.80
2018-12-17T02:12:20.248Z,2.80
2018-12-17T02:14:47.738Z,2.60
2018-12-17T02:17:15.278Z,2.40
2018-12-17T02:19:42.843Z,2.50
2018-12-17T02:22:10.359Z,2.60
2018-12-17T02:24:37.905Z,2.60
2018-12-17T02:27:05.427Z,2.70
2018-12-17T02:29:32.930Z,2.70
2018-12-17T02:32:00.471Z,2.70
2018-12-17T02:34:28.400Z,2.60
2018-12-17T02:36:55.948Z,2.50
2018-12-17T02:39:23.450Z,2.50
2018-12-17T02:41:51.104Z,2.60
2018-12-17T02:44:18.972Z,2.60
2018-12-17T02:46:46.531Z,2.60
2018-12-17T02:49:14.304Z,2.70
2018-12-17T02:51:41.852Z,2.80
2018-12-17T02:54:09.428Z,2.80
2018-12-17T02:56:37.009Z,2.80
2018-12-17T02:59:04.600Z,2.80
2018-12-17T03:01:32.100Z,2.80
2018-12-17T03:03:59.887Z,2.90
2018-12-17T03:06:27.406Z,2.90
2018-12-17T03:08:54.959Z,2.90
2018-12-17T03:11:22.626Z,2.90
2018-12-17T03:13:50.137Z,2.90
2018-12-17T03:16:17.685Z,2.80
2018-12-17T03:18:45.266Z,2.60
2018-12-17T03:21:12.768Z,2.70
2018-12-17T03:23:40.332Z,2.80
2018-12-17T03:26:07.870Z,2.80
2018-12-17T03:28:35.410Z,2.90
2018-12-17T03:31:02.944Z,2.90
2018-12-17T03:33:31.157Z,2.90
2018-12-17T03:35:58.665Z,2.80
2018-12-17T03:38:26.183Z,2.80
2018-12-17T03:40:53.863Z,2.90
2018-12-17T03:43:21.409Z,2.90
2018-12-17T03:45:48.965Z,2.90
2018-12-17T03:48:16.465Z,3.00
2018-12-17T03:50:43.971Z,3.00
2018-12-17T03:53:11.461Z,3.00
2018-12-17T03:55:39.896Z,3.00
2018-12-17T03:58:07.469Z,3.00
2018-12-17T04:00:35.040Z,3.00
2018-12-17T04:03:02.637Z,3.00
2018-12-17T04:05:30.175Z,2.90
2018-12-17T04:07:57.693Z,2.90
2018-12-17T04:10:25.325Z,2.90
2018-12-17T04:12:53.076Z,2.90
2018-12-17T04:15:20.744Z,2.90
2018-12-17T04:17:48.304Z,3.00
2018-12-17T04:20:15.899Z,3.00
2018-12-17T04:22:43.416Z,2.90
2018-12-17T04:25:10.969Z,2.90
2018-12-17T04:27:38.606Z,2.90
2018-12-17T04:30:06.174Z,3.00
2018-12-17T04:32:33.769Z,3.00
2018-12-17T04:35:01.342Z,3.00
2018-12-17T04:37:28.889Z,3.00
2018-12-17T04:39:56.483Z,3.00
2018-12-17T04:42:24.020Z,3.00
2018-12-17T04:44:51.696Z,3.10
2018-12-17T04:47:19.230Z,3.10
2018-12-17T04:49:46.858Z,3.10
2018-12-17T04:52:14.415Z,3.10
2018-12-17T04:54:42.046Z,3.10
2018-12-17T04:57:09.580Z,3.10
2018-12-17T04:59:37.750Z,2.90
2018-12-17T05:02:05.588Z,2.70
2018-12-17T05:04:33.377Z,2.60
2018-12-17T05:07:00.906Z,2.40
2018-12-17T05:09:28.442Z,2.30
2018-12-17T05:11:55.954Z,2.40
2018-12-17T05:14:23.455Z,2.60
2018-12-17T05:16:51.025Z,2.80
2018-12-17T05:19:18.599Z,2.90
2018-12-17T05:21:47.112Z,2.90
2018-12-17T05:24:14.958Z,3.00
2018-12-17T05:26:42.463Z,3.00
2018-12-17T05:29:10.014Z,2.90
2018-12-17T05:31:38.223Z,2.70
2018-12-17T05:34:05.886Z,2.50
2018-12-17T05:36:33.380Z,2.60
2018-12-17T05:39:00.884Z,2.70
2018-12-17T05:41:28.475Z,2.90
2018-12-17T05:43:56.048Z,3.00
2018-12-17T05:46:23.570Z,3.00
2018-12-17T05:48:51.096Z,3.00
2018-12-17T05:51:18.630Z,3.00
2018-12-17T05:53:46.326Z,2.90
2018-12-17T05:56:13.826Z,3.10
2018-12-17T05:58:41.336Z,3.10
2018-12-17T06:01:08.926Z,3.10
2018-12-17T06:03:37.152Z,3.00
2018-12-17T06:06:04.680Z,2.80
2018-12-17T06:08:32.228Z,2.70
2018-12-17T06:10:59.748Z,2.70
2018-12-17T06:13:27.246Z,2.80
2018-12-17T06:15:54.748Z,2.80
2018-12-17T06:18:22.315Z,2.70
2018-12-17T06:20:50.065Z,2.70
2018-12-17T06:23:17.665Z,2.60
2018-12-17T06:25:45.190Z,2.80
2018-12-17T06:28:12.686Z,2.80
2018-12-17T06:30:40.204Z,2.90
2018-12-17T06:33:07.854Z,2.90
2018-12-17T06:35:35.389Z,3.00
2018-12-17T06:38:02.956Z,3.00
2018-12-17T06:40:30.471Z,3.00
2018-12-17T06:42:58.099Z,3.10
2018-12-17T06:45:25.606Z,3.10
2018-12-17T06:47:53.105Z,3.10
2018-12-17T06:50:20.648Z,3.10
2018-12-17T06:52:48.194Z,2.90
2018-12-17T06:55:15.734Z,2.70
2018-12-17T06:57:43.404Z,2.60
2018-12-17T07:00:10.990Z,2.70
2018-12-17T07:02:38.498Z,2.60
2018-12-17T07:05:06.284Z,2.50
2018-12-17T07:07:33.830Z,2.40
2018-12-17T07:10:01.335Z,2.40
2018-12-17T07:12:28.939Z,2.60
2018-12-17T07:14:56.426Z,2.80
2018-12-17T07:17:23.956Z,2.80
2018-12-17T07:19:51.536Z,2.80
2018-12-17T07:22:19.093Z,2.60
2018-12-17T07:24:46.612Z,2.40
2018-12-17T07:27:14.153Z,2.30
2018-12-17T07:29:41.888Z,2.20
2018-12-17T07:32:09.472Z,2.10
2018-12-17T07:34:37.006Z,2.10
2018-12-17T07:37:05.086Z,2.00
2018-12-17T07:39:33.138Z,2.10
2018-12-17T07:42:00.692Z,2.10
2018-12-17T07:44:28.374Z,2.20
2018-12-17T07:46:56.022Z,2.30
2018-12-17T07:49:23.550Z,2.10
2018-12-17T07:51:51.062Z,2.20
2018-12-17T07:54:18.608Z,2.40
2018-12-17T07:56:46.132Z,2.50
2018-12-17T07:59:13.686Z,2.50
2018-12-17T08:01:41.184Z,2.50
2018-12-17T08:04:08.712Z,2.60
2018-12-17T08:06:36.207Z,2.70
2018-12-17T08:09:06.304Z,2.80
2018-12-17T08:11:33.806Z,2.90
2018-12-17T08:14:01.336Z,3.10
2018-12-17T08:16:28.854Z,3.00
2018-12-17T08:18:56.383Z,3.10
2018-12-17T08:21:23.951Z,3.10
2018-12-17T08:23:51.515Z,3.20
2018-12-17T08:26:19.116Z,3.20
2018-12-17T08:28:46.756Z,3.30
2018-12-17T08:31:14.308Z,3.40
2018-12-17T08:33:41.816Z,3.50
2018-12-17T08:36:09.336Z,3.50
2018-12-17T08:38:36.975Z,3.50
2018-12-17T08:41:04.515Z,3.50
2018-12-17T08:43:32.083Z,3.50
2018-12-17T08:45:59.639Z,3.50
2018-12-17T08:48:27.219Z,3.50
2018-12-17T08:50:54.774Z,3.60
2018-12-17T08:53:22.290Z,3.60
2018-12-17T08:55:49.921Z,3.70
2018-12-17T08:58:17.646Z,3.80
2018-12-17T09:00:45.189Z,3.80
2018-12-17T09:03:12.757Z,3.80
2018-12-17T09:05:40.337Z,3.70
2018-12-17T09:08:07.855Z,3.80
2018-12-17T09:10:35.453Z,3.70
2018-12-17T09:13:03.007Z,3.80
2018-12-17T09:15:30.603Z,3.60
2018-12-17T09:17:58.152Z,3.40
2018-12-17T09:20:25.693Z,3.50
2018-12-17T09:22:53.204Z,3.40
2018-12-17T09:25:20.839Z,3.40
2018-12-17T09:27:48.844Z,3.30
2018-12-17T09:30:18.455Z,3.10
2018-12-17T09:32:45.874Z,3.20
2018-12-17T09:35:13.621Z,3.30
2018-12-17T09:37:41.191Z,3.40
2018-12-17T09:40:08.862Z,3.40
2018-12-17T09:42:36.387Z,3.10
2018-12-17T09:45:05.013Z,3.10
2018-12-17T09:47:32.539Z,3.40
2018-12-17T09:50:00.257Z,3.40
2018-12-17T09:52:27.762Z,3.50
2018-12-17T09:54:55.300Z,3.50
2018-12-17T09:57:22.823Z,3.50
2018-12-17T09:59:50.417Z,3.50
2018-12-17T10:02:17.990Z,3.60
2018-12-17T10:04:45.575Z,3.80
2018-12-17T10:07:13.128Z,3.90
2018-12-17T10:09:40.652Z,3.70
2018-12-17T10:12:08.466Z,3.50
2018-12-17T10:14:35.956Z,3.40
2018-12-17T10:17:03.484Z,3.40
2018-12-17T10:19:31.012Z,3.40
2018-12-17T10:21:58.512Z,3.40
2018-12-17T10:24:26.110Z,3.70
2018-12-17T10:26:53.614Z,3.90
2018-12-17T10:29:21.540Z,4.00
2018-12-17T10:31:49.068Z,4.10
2018-12-17T10:34:16.549Z,4.30
2018-12-17T10:36:44.979Z,4.30
2018-12-17T10:39:12.508Z,4.30
2018-12-17T10:41:40.019Z,4.10
2018-12-17T10:44:07.544Z,4.10
2018-12-17T10:46:35.072Z,4.20
2018-12-17T10:49:02.623Z,4.30
2018-12-17T10:51:30.396Z,4.40
2018-12-17T10:53:57.913Z,4.50
2018-12-17T10:56:25.432Z,4.60
2018-12-17T10:58:52.964Z,4.70
2018-12-17T11:01:26.242Z,4.80
2018-12-17T11:03:55.745Z,4.60
2018-12-17T11:06:25.569Z,4.50
2018-12-17T11:08:53.139Z,4.60
2018-12-17T11:11:20.700Z,4.60
2018-12-17T11:13:48.234Z,4.50
2018-12-17T11:16:16.288Z,4.40
2018-12-17T11:18:43.864Z,4.50
2018-12-17T11:21:11.434Z,4.60
2018-12-17T11:23:39.566Z,4.60
2018-12-17T11:26:07.224Z,4.30
2018-12-17T11:28:34.787Z,4.20
2018-12-17T11:31:02.320Z,3.90
2018-12-17T11:33:29.845Z,3.80
2018-12-17T11:35:57.364Z,3.70
2018-12-17T11:38:24.862Z,3.70
2018-12-17T11:40:52.394Z,3.70
2018-12-17T11:43:20.718Z,3.70
2018-12-17T11:45:48.275Z,3.70
2018-12-17T11:48:15.929Z,3.70
2018-12-17T11:50:43.477Z,3.80
2018-12-17T11:53:11.339Z,3.80
2018-12-17T11:55:38.882Z,3.90
2018-12-17T11:58:09.955Z,4.10
2018-12-17T12:00:38.232Z,4.10
2018-12-17T12:03:05.760Z,4.00
2018-12-17T12:05:33.308Z,3.90
2018-12-17T12:08:00.831Z,3.90
2018-12-17T12:10:28.388Z,3.70
2018-12-17T12:12:56.082Z,3.70
2018-12-17T12:15:23.590Z,3.70
2018-12-17T12:17:51.208Z,3.90
2018-12-17T12:20:18.742Z,4.10
2018-12-17T12:22:46.330Z,4.40
2018-12-17T12:25:13.889Z,4.40
2018-12-17T12:27:41.478Z,4.20
2018-12-17T12:30:10.228Z,4.10
2018-12-17T12:32:37.781Z,4.10
2018-12-17T12:35:07.586Z,4.10
2018-12-17T12:37:35.156Z,4.20
2018-12-17T12:40:03.032Z,4.20
2018-12-17T12:42:30.606Z,4.40
2018-12-17T12:44:58.105Z,4.40
2018-12-17T12:47:25.734Z,4.30
2018-12-17T12:49:53.308Z,4.30
2018-12-17T12:52:20.886Z,4.40
2018-12-17T12:54:48.426Z,4.50
2018-12-17T12:57:15.937Z,4.80
2018-12-17T12:59:43.582Z,4.70
2018-12-17T13:02:11.126Z,4.50
2018-12-17T13:04:38.624Z,4.40
2018-12-17T13:07:06.491Z,4.40
2018-12-17T13:09:34.074Z,4.40
2018-12-17T13:12:01.609Z,4.30
2018-12-17T13:14:29.598Z,4.20
2018-12-17T13:16:57.099Z,4.30
2018-12-17T13:19:24.607Z,4.30
2018-12-17T13:21:52.127Z,4.30
2018-12-17T13:24:19.668Z,4.30
2018-12-17T13:26:47.188Z,4.30
2018-12-17T13:29:14.716Z,4.40
2018-12-17T13:31:42.214Z,4.30
2018-12-17T13:34:09.745Z,4.20
2018-12-17T13:36:37.322Z,4.10
2018-12-17T13:39:06.188Z,4.20
2018-12-17T13:41:33.676Z,4.10
2018-12-17T13:44:01.217Z,4.10
2018-12-17T13:46:28.740Z,4.10
2018-12-17T13:48:56.325Z,4.00
2018-12-17T13:51:29.462Z,4.10
2018-12-17T13:53:58.937Z,4.10
2018-12-17T13:56:26.712Z,4.00
2018-12-17T13:58:54.577Z,3.90
2018-12-17T14:01:22.196Z,3.90
2018-12-17T14:03:49.835Z,3.80
2018-12-17T14:06:17.402Z,3.90
2018-12-17T14:08:44.965Z,3.90
2018-12-17T14:11:12.526Z,3.90
2018-12-17T14:13:40.109Z,4.00
2018-12-17T14:16:13.404Z,4.00
2018-12-17T14:18:46.679Z,4.00
2018-12-17T14:21:19.843Z,3.90
2018-12-17T14:23:47.478Z,4.00
2018-12-17T14:26:15.021Z,4.10
2018-12-17T14:28:42.517Z,4.30
2018-12-17T14:31:10.093Z,4.40
2018-12-17T14:33:37.625Z,4.60
2018-12-17T14:36:09.189Z,4.40
2018-12-17T14:38:36.845Z,4.30
2018-12-17T14:41:04.409Z,4.20
2018-12-17T14:43:31.930Z,4.20
2018-12-17T14:45:59.432Z,4.20
2018-12-17T14:48:27.035Z,4.20
2018-12-17T14:50:54.589Z,4.30
2018-12-17T14:53:22.129Z,4.30
2018-12-17T14:55:49.676Z,4.40
2018-12-17T14:58:17.363Z,4.30
2018-12-17T15:00:45.009Z,4.30
2018-12-17T15:03:12.556Z,4.20
2018-12-17T15:05:40.118Z,4.30
2018-12-17T15:08:07.654Z,4.40
2018-12-17T15:10:35.211Z,4.40
2018-12-17T15:13:02.861Z,4.40
2018-12-17T15:15:30.354Z,4.30
2018-12-17T15:17:57.915Z,4.30
2018-12-17T15:20:25.433Z,4.40
2018-12-17T15:22:52.975Z,4.40
2018-12-17T15:25:20.498Z,4.30
2018-12-17T15:27:48.113Z,4.30
2018-12-17T15:30:15.706Z,4.30
2018-12-17T15:32:43.244Z,4.20
2018-12-17T15:35:10.765Z,4.20
2018-12-17T15:37:38.289Z,4.30
2018-12-17T15:40:05.883Z,4.30
2018-12-17T15:42:40.487Z,4.30
2018-12-17T15:45:03.412Z,4.30
2018-12-17T15:47:30.934Z,4.30
2018-12-17T15:49:58.564Z,4.30
2018-12-17T15:52:26.058Z,4.30
2018-12-17T15:54:53.761Z,4.40
2018-12-17T15:57:21.327Z,4.50
2018-12-17T15:59:49.005Z,4.40
2018-12-17T16:02:16.599Z,4.50
2018-12-17T16:04:44.172Z,4.50
2018-12-17T16:07:11.676Z,4.40
2018-12-17T16:09:39.210Z,4.30
2018-12-17T16:12:07.206Z,4.40
2018-12-17T16:14:34.734Z,4.40
2018-12-17T16:17:02.317Z,4.50
2018-12-17T16:19:29.850Z,4.60
2018-12-17T16:21:57.354Z,4.50
2018-12-17T16:24:24.944Z,4.50
2018-12-17T16:26:52.466Z,4.50
2018-12-17T16:29:19.989Z,4.30
2018-12-17T16:31:47.557Z,4.20
2018-12-17T16:34:15.202Z,4.20
2018-12-17T16:36:43.007Z,4.30
2018-12-17T16:39:10.515Z,4.40
2018-12-17T16:41:38.418Z,4.30
2018-12-17T16:44:05.991Z,4.40
2018-12-17T16:46:33.570Z,4.60
2018-12-17T16:49:01.674Z,4.50
2018-12-17T16:51:29.294Z,4.40
2018-12-17T16:53:56.820Z,4.40
2018-12-17T16:56:24.449Z,4.30
2018-12-17T16:58:52.020Z,4.30
2018-12-17T17:01:19.595Z,4.40
2018-12-17T17:03:47.129Z,4.30
2018-12-17T17:06:14.664Z,4.40
2018-12-17T17:08:42.765Z,4.50
2018-12-17T17:11:10.293Z,4.60
2018-12-17T17:13:37.850Z,4.50
2018-12-17T17:16:05.414Z,4.40
2018-12-17T17:18:32.949Z,4.30
2018-12-17T17:21:00.475Z,4.30
2018-12-17T17:23:28.029Z,4.30
2018-12-17T17:25:55.581Z,4.50
2018-12-17T17:28:23.233Z,4.60
2018-12-17T17:30:50.789Z,4.70
2018-12-17T17:33:18.342Z,4.80
2018-12-17T17:35:45.931Z,4.90
2018-12-17T17:38:13.526Z,5.00
2018-12-17T17:40:41.120Z,5.00
2018-12-17T17:43:08.702Z,5.00
2018-12-17T17:45:36.228Z,5.10
2018-12-17T17:48:04.553Z,5.10
2018-12-17T17:50:32.104Z,5.20
2018-12-17T17:52:59.636Z,5.30
2018-12-17T17:55:27.212Z,5.30
2018-12-17T17:57:54.738Z,5.30
2018-12-17T18:00:22.731Z,5.30
2018-12-17T18:02:50.617Z,5.40
2018-12-17T18:05:18.154Z,5.50
2018-12-17T18:07:45.723Z,5.50
2018-12-17T18:10:13.288Z,5.50
2018-12-17T18:12:40.856Z,5.50
2018-12-17T18:15:08.436Z,5.50
2018-12-17T18:17:36.000Z,5.60
2018-12-17T18:20:03.661Z,5.60
2018-12-17T18:22:31.189Z,5.60
2018-12-17T18:24:58.746Z,5.50
2018-12-17T18:27:26.563Z,5.60
2018-12-17T18:29:54.157Z,5.50
2018-12-17T18:32:25.959Z,5.60
2018-12-17T18:34:52.328Z,5.50
2018-12-17T18:37:20.045Z,5.50
2018-12-17T18:39:47.773Z,5.40
2018-12-17T18:42:15.302Z,5.30
2018-12-17T18:44:43.685Z,5.30
2018-12-17T18:47:11.573Z,5.30
2018-12-17T18:49:39.180Z,5.40
2018-12-17T18:52:07.362Z,5.40
2018-12-17T18:54:35.136Z,5.40
2018-12-17T18:57:02.666Z,5.20
2018-12-17T18:59:30.325Z,5.10
2018-12-17T19:01:57.883Z,5.10
2018-12-17T19:04:26.337Z,5.10
2018-12-17T19:06:54.815Z,5.00
2018-12-17T19:09:22.453Z,5.00
2018-12-17T19:11:50.173Z,5.00
2018-12-17T19:14:17.691Z,5.00
2018-12-17T19:16:45.229Z,5.00
2018-12-17T19:19:12.815Z,4.90
2018-12-17T19:21:41.640Z,4.80
2018-12-17T19:24:09.201Z,4.80
2018-12-17T19:26:36.742Z,4.90
2018-12-17T19:29:04.304Z,5.00
2018-12-17T19:31:34.701Z,5.10
2018-12-17T19:34:03.106Z,5.20
2018-12-17T19:36:31.571Z,5.10
2018-12-17T19:38:59.118Z,5.20
2018-12-17T19:41:26.632Z,5.30
2018-12-17T19:43:54.179Z,5.40
2018-12-17T19:46:21.734Z,5.50
2018-12-17T19:48:50.365Z,5.40
2018-12-17T19:51:17.938Z,5.40
2018-12-17T19:53:46.459Z,5.50
2018-12-17T19:56:13.992Z,5.50
2018-12-17T19:58:41.515Z,5.40
2018-12-17T20:01:09.239Z,5.20
2018-12-17T20:03:36.912Z,5.20
2018-12-17T20:06:04.518Z,5.40
2018-12-17T20:08:32.751Z,5.50
2018-12-17T20:11:00.868Z,5.60
2018-12-17T20:13:28.454Z,5.50
2018-12-17T20:15:56.010Z,5.50
2018-12-17T20:18:24.270Z,5.50
2018-12-17T20:20:51.849Z,5.70
2018-12-17T20:23:20.699Z,5.60
2018-12-17T20:25:48.245Z,5.70
2018-12-17T20:28:16.699Z,5.70
2018-12-17T20:30:44.258Z,5.70
2018-12-17T20:33:13.889Z,5.80
2018-12-17T20:35:41.415Z,5.70
2018-12-17T20:38:09.617Z,5.70
2018-12-17T20:40:40.276Z,5.80
2018-12-17T20:43:07.806Z,5.70
2018-12-17T20:45:35.459Z,5.70
2018-12-17T20:48:03.499Z,5.80
2018-12-17T20:50:31.054Z,5.90
2018-12-17T20:52:58.742Z,6.00
2018-12-17T20:55:30.525Z,6.00
2018-12-17T20:57:56.903Z,6.10
2018-12-17T21:00:24.836Z,6.00
2018-12-17T21:02:53.353Z,6.10
2018-12-17T21:05:20.886Z,6.20
2018-12-17T21:07:48.519Z,6.20
2018-12-17T21:10:16.066Z,6.20
2018-12-17T21:12:43.587Z,6.30
2018-12-17T21:15:12.194Z,6.30
2018-12-17T21:17:39.716Z,6.20
2018-12-17T21:20:07.526Z,6.20
2018-12-17T21:22:36.060Z,6.30
2018-12-17T21:25:04.355Z,6.30
2018-12-17T21:27:31.973Z,6.30
2018-12-17T21:29:59.581Z,6.30
2018-12-17T21:32:27.600Z,6.40
2018-12-17T21:34:55.124Z,6.40
2018-12-17T21:37:22.692Z,6.50
2018-12-17T21:39:51.066Z,6.60
2018-12-17T21:42:18.637Z,6.60
2018-12-17T21:44:46.187Z,6.60
2018-12-17T21:47:13.728Z,6.70
2018-12-17T21:49:41.273Z,6.70
2018-12-17T21:52:09.358Z,6.80
2018-12-17T21:54:36.945Z,6.80
2018-12-17T21:57:04.558Z,6.80
2018-12-17T21:59:32.660Z,6.90
2018-12-17T22:02:00.187Z,6.90
2018-12-17T22:04:27.810Z,7.00
2018-12-17T22:06:55.356Z,7.00
2018-12-17T22:09:22.872Z,7.00
2018-12-17T22:11:50.424Z,7.00
2018-12-17T22:14:18.006Z,7.00
2018-12-17T22:16:45.566Z,7.10
2018-12-17T22:19:13.081Z,7.10
2018-12-17T22:21:40.690Z,7.10
2018-12-17T22:24:08.250Z,7.10
2018-12-17T22:26:35.782Z,7.10
2018-12-17T22:29:03.329Z,7.20
2018-12-17T22:31:30.932Z,7.20
2018-12-17T22:33:58.506Z,7.20
2018-12-17T22:36:26.096Z,7.20
2018-12-17T22:38:53.623Z,7.20
2018-12-17T22:41:21.153Z,7.20
2018-12-17T22:43:48.725Z,7.30
2018-12-17T22:46:16.229Z,7.30
2018-12-17T22:48:43.753Z,7.30
2018-12-17T22:51:11.426Z,7.30
2018-12-17T22:53:39.069Z,7.40
2018-12-17T22:56:06.583Z,7.40
2018-12-17T22:58:34.126Z,7.40
2018-12-17T23:01:02.208Z,7.40
2018-12-17T23:03:29.730Z,7.40
2018-12-17T23:05:57.288Z,7.50
2018-12-17T23:08:24.852Z,7.50
2018-12-17T23:11:04.250Z,7.50
2018-12-17T23:13:43.620Z,7.50
2018-12-17T23:16:23.139Z,7.50
2018-12-17T23:18:50.255Z,7.50
2018-12-17T23:21:18.129Z,7.50
2018-12-17T23:23:45.749Z,7.50
2018-12-17T23:26:13.270Z,7.50
2018-12-17T23:28:40.834Z,7.50
2018-12-17T23:31:08.848Z,7.50
2018-12-17T23:33:36.662Z,7.50
2018-12-17T23:36:04.259Z,7.50
2018-12-17T23:38:31.838Z,7.60
2018-12-17T23:40:59.442Z,7.60
2018-12-17T23:43:27.023Z,7.60
2018-12-17T23:45:54.613Z,7.70
2018-12-17T23:48:22.168Z,7.70
2018-12-17T23:50:49.754Z,7.70
2018-12-17T23:53:17.297Z,7.70
2018-12-17T23:55:44.893Z,7.70
2018-12-17T23:58:12.413Z,7.80
